createdAt,value
2018-12-08T06:30:18.290Z,53.80
2018-12-08T06:32:46.852Z,54.37
2018-12-08T06:35:15.432Z,56.93
2018-12-08T06:37:43.995Z,52.97
2018-12-08T06:40:12.764Z,53.80
2018-12-08T06:42:41.410Z,52.60
2018-12-08T06:45:10.485Z,55.00
2018-12-08T06:47:39.264Z,52.20
2018-12-08T06:50:08.077Z,55.30
2018-12-08T06:52:36.713Z,55.33
2018-12-08T06:55:05.494Z,56.70
2018-12-08T06:57:34.046Z,56.40
2018-12-08T07:00:06.334Z,53.07
2018-12-08T07:02:34.984Z,55.03
2018-12-08T07:05:03.735Z,54.27
2018-12-08T07:07:32.339Z,55.93
2018-12-08T07:10:00.943Z,57.63
2018-12-08T07:12:29.595Z,61.10
2018-12-08T07:14:58.226Z,59.53
2018-12-08T07:17:26.781Z,58.43
2018-12-08T07:19:55.695Z,60.30
2018-12-08T07:22:24.412Z,61.33
2018-12-08T07:24:53.044Z,60.57
2018-12-08T07:27:21.742Z,61.47
2018-12-08T07:29:50.383Z,60.07
2018-12-08T07:32:19.010Z,62.27
2018-12-08T07:34:47.649Z,63.47
2018-12-08T07:37:16.333Z,62.47
2018-12-08T07:39:45.004Z,60.33
2018-12-08T07:42:13.702Z,62.93
2018-12-08T07:44:42.336Z,66.20
2018-12-08T07:47:11.043Z,66.90
2018-12-08T07:49:39.856Z,65.90
2018-12-08T07:52:08.474Z,63.13
2018-12-08T07:54:37.112Z,65.70
2018-12-08T07:57:05.768Z,59.53
2018-12-08T07:59:34.389Z,61.13
2018-12-08T08:02:03.056Z,62.60
2018-12-08T08:04:31.729Z,66.47
2018-12-08T08:07:00.400Z,64.93
2018-12-08T08:09:29.034Z,65.23
2018-12-08T08:11:57.660Z,63.73
2018-12-08T08:14:26.371Z,64.97
2018-12-08T08:16:55.002Z,62.77
2018-12-08T08:19:23.690Z,61.40
2018-12-08T08:21:52.407Z,61.47
2018-12-08T08:24:21.021Z,57.63
2018-12-08T08:26:49.662Z,58.70
2018-12-08T08:29:18.278Z,56.37
2018-12-08T08:31:47.045Z,55.43
2018-12-08T08:34:15.677Z,55.27
2018-12-08T08:36:44.275Z,53.83
2018-12-08T08:39:13.005Z,53.97
2018-12-08T08:41:41.573Z,53.17
2018-12-08T08:44:10.178Z,50.40
2018-12-08T08:46:38.871Z,52.40
2018-12-08T08:49:07.548Z,50.10
2018-12-08T08:53:07.106Z,51.90
2018-12-08T08:55:35.746Z,56.50
2018-12-08T08:58:04.406Z,67.80
2018-12-08T09:00:33.055Z,68.53
2018-12-08T09:03:01.722Z,63.77
2018-12-08T09:05:30.406Z,59.33
2018-12-08T09:07:59.004Z,59.20
2018-12-08T09:10:27.642Z,55.73
2018-12-08T09:12:56.528Z,57.83
2018-12-08T09:15:25.190Z,58.43
2018-12-08T09:17:53.940Z,56.60
2018-12-08T09:20:22.532Z,56.07
2018-12-08T09:22:51.233Z,55.57
2018-12-08T09:25:19.857Z,52.73
2018-12-08T09:27:49.292Z,53.53
2018-12-08T09:30:18.017Z,52.73
2018-12-08T09:32:46.605Z,53.20
2018-12-08T09:35:15.341Z,54.93
2018-12-08T09:37:44.013Z,54.83
2018-12-08T09:40:12.627Z,55.03
2018-12-08T09:42:44.576Z,53.43
2018-12-08T09:45:13.281Z,54.60
2018-12-08T09:47:41.990Z,52.50
2018-12-08T09:50:10.659Z,54.17
2018-12-08T09:52:39.295Z,54.77
2018-12-08T09:55:07.993Z,52.93
2018-12-08T09:57:36.618Z,51.43
2018-12-08T10:00:09.056Z,57.33
2018-12-08T10:02:37.611Z,57.77
2018-12-08T10:05:06.609Z,58.37
2018-12-08T10:07:35.232Z,59.53
2018-12-08T10:10:04.254Z,58.67
2018-12-08T10:12:32.828Z,58.00
2018-12-08T10:15:01.666Z,62.73
2018-12-08T10:17:30.234Z,72.10
2018-12-08T10:19:58.925Z,70.00
2018-12-08T10:22:28.019Z,70.47
2018-12-08T10:24:56.713Z,71.03
2018-12-08T10:27:25.295Z,70.20
2018-12-08T10:29:53.981Z,70.83
2018-12-08T10:32:22.732Z,66.00
2018-12-08T10:34:51.462Z,63.37
2018-12-08T10:37:20.242Z,64.30
2018-12-08T10:39:49.020Z,60.33
2018-12-08T10:42:17.629Z,60.87
2018-12-08T10:44:46.287Z,57.47
2018-12-08T10:47:14.839Z,58.57
2018-12-08T10:49:43.584Z,56.50
2018-12-08T10:52:12.185Z,57.97
2018-12-08T10:54:40.750Z,60.10
2018-12-08T10:57:09.430Z,55.80
2018-12-08T10:59:38.092Z,57.97
2018-12-08T11:02:10.837Z,57.90
2018-12-08T11:04:39.895Z,59.90
2018-12-08T11:07:08.683Z,61.83
2018-12-08T11:09:37.302Z,60.50
2018-12-08T11:12:05.869Z,59.70
2018-12-08T11:14:34.497Z,61.57
2018-12-08T11:17:03.110Z,61.47
2018-12-08T11:19:31.701Z,61.97
2018-12-08T11:22:00.343Z,90.17
2018-12-08T11:24:28.971Z,68.07
2018-12-08T11:26:57.557Z,66.40
2018-12-08T11:29:26.216Z,54.87
2018-12-08T11:31:54.820Z,48.17
2018-12-08T11:34:23.583Z,46.53
2018-12-08T11:36:52.225Z,47.50
2018-12-08T11:39:20.827Z,42.43
2018-12-08T11:41:49.670Z,41.10
2018-12-08T11:44:18.610Z,40.23
2018-12-08T11:46:47.601Z,42.40
2018-12-08T11:49:16.233Z,39.13
2018-12-08T11:51:44.856Z,36.03
2018-12-08T11:54:13.733Z,36.73
2018-12-08T11:56:42.411Z,37.30
2018-12-08T11:59:11.121Z,37.87
2018-12-08T12:01:39.775Z,34.93
2018-12-08T12:04:08.476Z,34.20
2018-12-08T12:06:37.154Z,34.77
2018-12-08T12:09:07.935Z,35.50
2018-12-08T12:11:37.075Z,35.73
2018-12-08T12:14:05.672Z,35.53
2018-12-08T12:16:34.286Z,63.17
2018-12-08T12:19:02.886Z,37.17
2018-12-08T12:21:31.534Z,35.07
2018-12-08T12:24:00.226Z,34.17
2018-12-08T12:26:28.917Z,36.20
2018-12-08T12:28:57.853Z,36.83
2018-12-08T12:31:26.505Z,35.73
2018-12-08T12:33:55.103Z,36.67
2018-12-08T12:36:23.757Z,36.43
2018-12-08T12:38:52.342Z,37.50
2018-12-08T12:41:21.025Z,39.17
2018-12-08T12:43:49.638Z,37.80
2018-12-08T12:46:18.267Z,37.63
2018-12-08T12:48:46.931Z,37.17
2018-12-08T12:51:15.555Z,55.60
2018-12-08T12:53:44.141Z,60.57
2018-12-08T12:56:12.762Z,65.77
2018-12-08T12:58:41.410Z,69.63
2018-12-08T13:01:10.970Z,69.03
2018-12-08T13:03:39.623Z,74.07
2018-12-08T13:06:08.185Z,76.37
2018-12-08T13:08:36.757Z,78.47
2018-12-08T13:11:05.327Z,79.40
2018-12-08T13:13:33.936Z,79.03
2018-12-08T13:16:02.588Z,83.23
2018-12-08T13:18:31.169Z,87.97
2018-12-08T13:20:59.785Z,82.03
2018-12-08T13:23:28.379Z,80.23
2018-12-08T13:25:57.013Z,79.00
2018-12-08T13:28:25.658Z,80.10
2018-12-08T13:30:54.361Z,79.50
2018-12-08T13:33:22.943Z,80.83
2018-12-08T13:35:53.303Z,82.03
2018-12-08T13:38:23.411Z,81.50
2018-12-08T13:40:52.403Z,83.50
2018-12-08T13:43:20.977Z,80.33
2018-12-08T13:45:49.615Z,78.50
2018-12-08T13:48:20.229Z,79.13
2018-12-08T13:50:49.062Z,79.77
2018-12-08T13:53:17.878Z,77.97
2018-12-08T13:55:46.470Z,79.47
2018-12-08T13:58:15.033Z,81.67
2018-12-08T14:00:43.688Z,77.57
2018-12-08T14:03:12.302Z,74.57
2018-12-08T14:05:41.043Z,75.93
2018-12-08T14:08:09.603Z,79.10
2018-12-08T14:10:38.209Z,79.43
2018-12-08T14:13:06.852Z,73.90
2018-12-08T14:15:35.446Z,72.93
2018-12-08T14:18:04.210Z,73.00
2018-12-08T14:20:34.302Z,70.40
2018-12-08T14:23:02.954Z,69.73
2018-12-08T14:25:33.512Z,69.90
2018-12-08T14:28:02.520Z,68.90
2018-12-08T14:30:31.095Z,68.63
2018-12-08T14:32:59.710Z,68.23
2018-12-08T14:35:28.332Z,69.57
2018-12-08T14:37:57.005Z,71.30
2018-12-08T14:40:25.680Z,70.83
2018-12-08T14:42:54.276Z,73.20
2018-12-08T14:45:22.921Z,71.20
2018-12-08T14:47:51.569Z,68.20
2018-12-08T14:50:21.316Z,75.37
2018-12-08T14:52:49.903Z,76.60
2018-12-08T14:55:18.530Z,73.77
2018-12-08T14:57:47.270Z,72.43
2018-12-08T15:00:16.095Z,72.63
2018-12-08T15:02:44.723Z,77.10
2018-12-08T15:05:13.577Z,74.77
2018-12-08T15:07:42.246Z,77.90
2018-12-08T15:10:12.316Z,78.43
2018-12-08T15:12:41.079Z,74.87
2018-12-08T15:15:10.971Z,76.60
2018-12-08T15:17:39.650Z,75.80
2018-12-08T15:20:09.490Z,78.27
2018-12-08T15:22:39.456Z,78.83
2018-12-08T15:25:09.961Z,80.97
2018-12-08T15:27:39.868Z,80.20
2018-12-08T15:30:11.634Z,80.57
2018-12-08T15:32:41.367Z,82.73
2018-12-08T15:35:11.704Z,81.37
2018-12-08T15:37:43.045Z,86.00
2018-12-08T15:40:12.184Z,85.07
2018-12-08T15:42:40.898Z,85.33
2018-12-08T15:45:11.624Z,85.33
2018-12-08T15:47:40.393Z,85.20
2018-12-08T15:50:10.771Z,83.73
2018-12-08T15:52:39.397Z,84.03
2018-12-08T15:55:08.210Z,84.83
2018-12-08T15:57:36.810Z,82.53
2018-12-08T16:00:12.370Z,84.80
2018-12-08T16:02:41.033Z,84.03
2018-12-08T16:05:10.273Z,79.77
2018-12-08T16:07:38.959Z,85.67
2018-12-08T16:10:08.653Z,84.40
2018-12-08T16:12:37.400Z,84.67
2018-12-08T16:15:07.727Z,75.10
2018-12-08T16:17:36.359Z,76.20
2018-12-08T16:20:07.030Z,74.23
2018-12-08T16:22:35.673Z,73.10
2018-12-08T16:25:04.545Z,75.07
2018-12-08T16:27:33.217Z,69.00
2018-12-08T16:30:03.594Z,72.70
2018-12-08T16:32:32.463Z,70.13
2018-12-08T16:35:01.122Z,65.53
2018-12-08T16:37:30.143Z,66.90
2018-12-08T16:39:58.864Z,69.07
2018-12-08T16:42:28.137Z,64.97
2018-12-08T16:44:56.743Z,64.27
2018-12-08T16:47:25.394Z,70.00
2018-12-08T16:49:54.014Z,67.10
2018-12-08T16:52:22.687Z,77.23
2018-12-08T16:54:51.275Z,73.50
2018-12-08T16:57:19.892Z,67.00
2018-12-08T16:59:48.506Z,64.73
2018-12-08T17:02:17.497Z,76.63
2018-12-08T17:04:46.153Z,75.90
2018-12-08T17:07:16.325Z,80.80
2018-12-08T17:09:45.248Z,78.40
2018-12-08T17:12:14.016Z,73.80
2018-12-08T17:14:42.609Z,78.67
2018-12-08T17:17:11.219Z,77.83
2018-12-08T17:19:39.913Z,89.57
2018-12-08T17:22:08.590Z,76.73
2018-12-08T17:24:37.325Z,95.97
2018-12-08T17:27:06.069Z,91.80
2018-12-08T17:29:34.745Z,91.50
2018-12-08T17:32:03.382Z,99.10
2018-12-08T17:36:58.234Z,96.97
2018-12-08T17:39:27.123Z,106.73
2018-12-08T17:41:55.747Z,103.70
2018-12-08T17:44:24.647Z,116.93
2018-12-08T17:46:53.532Z,120.13
2018-12-08T17:49:22.237Z,115.70
2018-12-08T17:51:50.854Z,118.27
2018-12-08T17:54:19.462Z,116.17
2018-12-08T17:56:48.114Z,115.73
2018-12-08T17:59:16.748Z,108.63
2018-12-08T18:01:45.377Z,106.23
2018-12-08T18:04:14.083Z,106.23
2018-12-08T18:06:42.747Z,111.43
2018-12-08T18:09:11.409Z,128.10
2018-12-08T18:11:40.089Z,112.23
2018-12-08T18:14:08.717Z,100.53
2018-12-08T18:16:37.559Z,99.30
2018-12-08T18:19:06.386Z,98.63
2018-12-08T18:21:35.064Z,102.43
2018-12-08T18:24:03.794Z,108.13
2018-12-08T18:26:32.494Z,106.70
2018-12-08T18:29:01.120Z,106.77
2018-12-08T18:31:29.793Z,105.03
2018-12-08T18:33:58.421Z,101.40
2018-12-08T18:36:27.057Z,106.87
2018-12-08T18:38:55.931Z,109.43
2018-12-08T18:41:24.670Z,101.30
2018-12-08T18:43:53.630Z,101.50
2018-12-08T18:46:22.283Z,101.20
2018-12-08T18:48:50.917Z,97.13
2018-12-08T18:51:19.610Z,100.33
2018-12-08T18:53:48.242Z,96.93
2018-12-08T18:56:16.975Z,94.73
2018-12-08T18:58:45.647Z,98.13
2018-12-08T19:01:14.997Z,102.10
2018-12-08T19:03:43.758Z,95.47
2018-12-08T19:06:13.345Z,98.47
2018-12-08T19:08:42.191Z,96.57
2018-12-08T19:11:10.814Z,102.43
2018-12-08T19:13:39.455Z,101.30
2018-12-08T19:16:08.050Z,93.73
2018-12-08T19:18:36.703Z,92.13
2018-12-08T19:21:05.659Z,86.23
2018-12-08T19:23:34.371Z,82.40
2018-12-08T19:26:03.025Z,82.27
2018-12-08T19:28:31.676Z,85.80
2018-12-08T19:31:00.374Z,84.90
2018-12-08T19:33:29.048Z,94.47
2018-12-08T19:35:58.247Z,90.43
2018-12-08T19:38:26.939Z,91.40
2018-12-08T19:40:55.568Z,91.23
2018-12-08T19:43:27.157Z,91.00
2018-12-08T19:45:55.754Z,92.27
2018-12-08T19:48:24.496Z,88.27
2018-12-08T19:50:53.354Z,88.63
2018-12-08T19:53:21.983Z,91.23
2018-12-08T19:55:50.723Z,92.03
2018-12-08T19:58:19.300Z,87.60
2018-12-08T20:00:47.970Z,87.97
2018-12-08T20:03:16.664Z,80.10
2018-12-08T20:05:45.357Z,96.90
2018-12-08T20:08:14.034Z,98.20
2018-12-08T20:10:42.673Z,80.83
2018-12-08T20:13:11.434Z,79.93
2018-12-08T20:15:40.070Z,85.83
2018-12-08T20:18:08.715Z,90.80
2018-12-08T20:20:37.788Z,78.43
2018-12-08T20:23:06.518Z,79.73
2018-12-08T20:25:35.147Z,76.20
2018-12-08T20:28:03.799Z,75.93
2018-12-08T20:30:32.474Z,74.50
2018-12-08T20:33:01.078Z,87.83
2018-12-08T20:35:29.853Z,82.33
2018-12-08T20:37:58.449Z,83.70
2018-12-08T20:40:27.133Z,86.10
2018-12-08T20:42:55.799Z,91.43
2018-12-08T20:45:24.395Z,86.87
2018-12-08T20:47:53.102Z,76.60
2018-12-08T20:50:21.702Z,89.03
2018-12-08T20:52:50.392Z,83.27
2018-12-08T20:55:18.983Z,67.77
2018-12-08T20:57:47.645Z,82.90
2018-12-08T21:00:16.413Z,82.40
2018-12-08T21:02:45.160Z,76.57
2018-12-08T21:05:13.903Z,80.27
2018-12-08T21:07:42.914Z,85.50
2018-12-08T21:10:11.563Z,82.73
2018-12-08T21:12:40.231Z,99.10
2018-12-08T21:15:09.020Z,87.33
2018-12-08T21:17:37.782Z,87.77
2018-12-08T21:20:09.183Z,89.63
2018-12-08T21:22:37.843Z,88.10
2018-12-08T21:25:06.646Z,92.90
2018-12-08T21:27:35.258Z,90.90
2018-12-08T21:32:38.242Z,103.00
2018-12-08T21:35:06.902Z,113.47
2018-12-08T21:37:35.471Z,121.50
2018-12-08T21:40:04.346Z,123.83
2018-12-08T21:42:32.965Z,120.90
2018-12-08T21:45:01.629Z,122.67
2018-12-08T21:47:30.415Z,117.13
2018-12-08T21:49:59.036Z,119.80
2018-12-08T21:52:27.669Z,116.27
2018-12-08T21:54:56.320Z,114.07
2018-12-08T21:57:25.513Z,110.50
2018-12-08T21:59:54.104Z,107.23
2018-12-08T22:02:22.937Z,104.80
2018-12-08T22:04:51.563Z,105.07
2018-12-08T22:07:20.219Z,107.20
2018-12-08T22:09:49.638Z,104.77
2018-12-08T22:12:18.242Z,103.47
2018-12-08T22:14:52.017Z,102.63
2018-12-08T22:17:20.724Z,99.73
2018-12-08T22:19:49.375Z,102.53
2018-12-08T22:22:18.064Z,100.93
2018-12-08T22:24:46.650Z,99.80
2018-12-08T22:27:15.254Z,101.33
2018-12-08T22:29:43.849Z,97.67
2018-12-08T22:32:12.524Z,99.37
2018-12-08T22:34:41.256Z,98.50
2018-12-08T22:37:09.929Z,95.20
2018-12-08T22:39:38.609Z,95.07
2018-12-08T22:42:07.260Z,95.83
2018-12-08T22:44:35.891Z,99.83
2018-12-08T22:47:04.542Z,99.97
2018-12-08T22:49:33.200Z,99.77
2018-12-08T22:52:02.002Z,104.03
2018-12-08T22:54:30.701Z,101.70
2018-12-08T22:56:59.375Z,102.70
2018-12-08T22:59:29.067Z,102.97
2018-12-08T23:01:57.681Z,104.00
2018-12-08T23:04:26.254Z,102.17
2018-12-08T23:07:05.775Z,98.27
2018-12-08T23:09:34.394Z,95.80
2018-12-08T23:12:03.037Z,98.03
2018-12-08T23:14:31.664Z,98.30
2018-12-08T23:17:00.424Z,97.47
2018-12-08T23:19:28.988Z,98.47
2018-12-08T23:21:57.642Z,94.00
2018-12-08T23:24:26.276Z,99.53
2018-12-08T23:26:54.873Z,97.43
2018-12-08T23:29:23.493Z,95.53
2018-12-08T23:31:52.135Z,100.80
2018-12-08T23:34:20.770Z,100.40
2018-12-08T23:36:49.417Z,99.63
2018-12-08T23:39:18.074Z,98.80
2018-12-08T23:41:46.814Z,100.33
2018-12-08T23:44:15.444Z,101.57
2018-12-08T23:46:44.081Z,97.97
2018-12-08T23:49:12.738Z,104.03
2018-12-08T23:51:41.406Z,109.87
2018-12-08T23:54:09.968Z,97.47
2018-12-08T23:56:38.637Z,102.50
2018-12-08T23:59:07.393Z,103.07
